This is the latest recevied weather packets stored in our database for station/object KD8DNO-13. If no packets are shown the sender has not sent any weather packets the latest 10 day(s).
| Time | Temp. | Humidity | Pressure | Rain* | Wind** | Luminosity | Snow |
|---|---|---|---|---|---|---|---|
| 1787936283 | 25.56° C | 67% | 1022.3 hPa | 0 mm | - | - | - |
| 1787935983 | 25° C | 70% | 1022.3 hPa | 0 mm | - | - | - |
| 1787935683 | 24.44° C | 74% | 1022.3 hPa | 0 mm | - | - | - |
| 1787935384 | 23.89° C | 75% | 1022.3 hPa | 0 mm | - | - | - |
| 1787935083 | 24.44° C | 72% | 1022 hPa | 0 mm | - | - | - |
| 1787934783 | 24.44° C | 69% | 1022 hPa | 0 mm | - | - | - |
| 1787934483 | 24.44° C | 67% | 1022 hPa | 0 mm | - | - | - |
| 1787934183 | 25° C | 67% | 1022 hPa | 0 mm | - | - | - |
| 1787933893 | 25.56° C | 67% | 1022 hPa | 0 mm | - | - | - |
| 1787933583 | 25° C | 69% | 1022 hPa | 0 mm | - | - | - |
| 1787933283 | 25° C | 69% | 1022 hPa | 0 mm | - | - | - |
| 1787932983 | 26.11° C | 66% | 1022 hPa | 0 mm | - | - | - |
| 1787932683 | 25.56° C | 66% | 1022 hPa | 0 mm | - | - | - |
| 1787932383 | 25.56° C | 67% | 1022 hPa | 0 mm | - | - | - |
| 1787932083 | 25.56° C | 64% | 1022 hPa | 0 mm | - | - | - |
| 1787931783 | 25.56° C | 65% | 1022 hPa | 0 mm | - | - | - |
| 1787931483 | 25.56° C | 62% | 1022 hPa | 0 mm | - | - | - |
| 1787931183 | 25.56° C | 63% | 1022 hPa | 0 mm | - | - | - |
| 1787930886 | 25° C | 65% | 1022 hPa | 0 mm | - | - | - |
| 1787930583 | 25° C | 69% | 1022 hPa | 0 mm | - | - | - |
| 1787930283 | 25° C | 68% | 1022 hPa | 0 mm | - | - | - |
| 1787929983 | 25° C | 68% | 1022 hPa | 0 mm | - | - | - |
| 1787929684 | 24.44° C | 70% | 1022 hPa | 0 mm | - | - | - |
| 1787929383 | 24.44° C | 70% | 1021.6 hPa | 0 mm | - | - | - |
| 1787929083 | 23.89° C | 70% | 1021.6 hPa | 0 mm | - | - | - |
* Rain latest hour (hover to see other rain measurements)
** Current wind speed in m/s (hover to see current wind gust speed)